sensor_id;sensor_type;location;lat;lon;timestamp;pressure;altitude;pressure_sealevel;temperature;humidity
37291;BME280;23175;-33.706;151.094;2024-01-25T00:01:48;99249.29;;;28.71;36.57
37291;BME280;23175;-33.706;151.094;2024-01-25T00:04:18;99259.67;;;27.86;38.34
37291;BME280;23175;-33.706;151.094;2024-01-25T00:06:48;99261.77;;;29.78;36.13
37291;BME280;23175;-33.706;151.094;2024-01-25T00:09:19;99258.08;;;28.60;35.93
37291;BME280;23175;-33.706;151.094;2024-01-25T00:11:49;99260.99;;;29.12;36.40
37291;BME280;23175;-33.706;151.094;2024-01-25T00:14:19;99258.50;;;28.80;37.29
37291;BME280;23175;-33.706;151.094;2024-01-25T00:16:49;99263.28;;;29.30;37.48
37291;BME280;23175;-33.706;151.094;2024-01-25T00:19:19;99257.65;;;30.09;36.27
37291;BME280;23175;-33.706;151.094;2024-01-25T00:21:49;99260.91;;;28.69;39.28
37291;BME280;23175;-33.706;151.094;2024-01-25T00:24:19;99256.09;;;29.42;37.80
37291;BME280;23175;-33.706;151.094;2024-01-25T00:26:49;99259.25;;;27.40;40.21
37291;BME280;23175;-33.706;151.094;2024-01-25T00:29:19;99258.48;;;28.37;39.13
37291;BME280;23175;-33.706;151.094;2024-01-25T00:31:49;99256.13;;;29.01;39.63
37291;BME280;23175;-33.706;151.094;2024-01-25T00:34:19;99258.37;;;28.57;38.39
37291;BME280;23175;-33.706;151.094;2024-01-25T00:36:50;99264.45;;;28.87;38.19
37291;BME280;23175;-33.706;151.094;2024-01-25T00:39:21;99266.60;;;28.96;37.00
37291;BME280;23175;-33.706;151.094;2024-01-25T00:41:52;99267.52;;;27.67;39.75
37291;BME280;23175;-33.706;151.094;2024-01-25T00:44:25;99264.69;;;27.64;39.42
37291;BME280;23175;-33.706;151.094;2024-01-25T00:46:56;99255.98;;;28.48;37.15
37291;BME280;23175;-33.706;151.094;2024-01-25T00:49:27;99256.96;;;29.50;36.35
37291;BME280;23175;-33.706;151.094;2024-01-25T00:52:00;99253.74;;;30.16;36.08
37291;BME280;23175;-33.706;151.094;2024-01-25T00:54:32;99247.70;;;29.22;36.98
37291;BME280;23175;-33.706;151.094;2024-01-25T00:57:03;99245.62;;;30.20;35.04
37291;BME280;23175;-33.706;151.094;2024-01-25T00:59:33;99252.70;;;28.05;38.99
37291;BME280;23175;-33.706;151.094;2024-01-25T01:02:05;99251.73;;;30.07;35.62
37291;BME280;23175;-33.706;151.094;2024-01-25T01:04:38;99254.10;;;30.04;37.82
37291;BME280;23175;-33.706;151.094;2024-01-25T01:07:09;99257.38;;;29.71;37.20
37291;BME280;23175;-33.706;151.094;2024-01-25T01:09:39;99255.78;;;30.54;36.36
37291;BME280;23175;-33.706;151.094;2024-01-25T01:12:10;99254.45;;;30.90;36.60
37291;BME280;23175;-33.706;151.094;2024-01-25T01:14:39;99256.76;;;30.49;36.93
37291;BME280;23175;-33.706;151.094;2024-01-25T01:17:09;99257.00;;;28.52;38.98
37291;BME280;23175;-33.706;151.094;2024-01-25T01:19:39;99258.95;;;28.68;39.97
37291;BME280;23175;-33.706;151.094;2024-01-25T01:22:10;99258.41;;;27.48;41.82
37291;BME280;23175;-33.706;151.094;2024-01-25T01:24:40;99256.19;;;29.26;39.77
37291;BME280;23175;-33.706;151.094;2024-01-25T01:27:09;99258.68;;;29.43;38.56
37291;BME280;23175;-33.706;151.094;2024-01-25T01:29:40;99263.37;;;27.79;41.74
37291;BME280;23175;-33.706;151.094;2024-01-25T01:32:10;99261.29;;;29.05;41.26
37291;BME280;23175;-33.706;151.094;2024-01-25T01:34:40;99257.93;;;27.12;43.94
37291;BME280;23175;-33.706;151.094;2024-01-25T01:37:10;99254.34;;;30.11;38.63
37291;BME280;23175;-33.706;151.094;2024-01-25T01:39:41;99254.17;;;28.93;40.60
37291;BME280;23175;-33.706;151.094;2024-01-25T01:42:11;99250.84;;;29.68;40.27
37291;BME280;23175;-33.706;151.094;2024-01-25T01:44:41;99247.53;;;30.37;39.86
37291;BME280;23175;-33.706;151.094;2024-01-25T01:47:11;99239.42;;;28.40;42.17
37291;BME280;23175;-33.706;151.094;2024-01-25T01:49:41;99235.34;;;29.23;41.36
37291;BME280;23175;-33.706;151.094;2024-01-25T01:52:11;99233.17;;;29.47;40.65
37291;BME280;23175;-33.706;151.094;2024-01-25T01:54:41;99230.09;;;30.57;39.78
37291;BME280;23175;-33.706;151.094;2024-01-25T01:57:12;99223.57;;;29.22;41.27
37291;BME280;23175;-33.706;151.094;2024-01-25T01:59:42;99216.04;;;29.19;39.31
37291;BME280;23175;-33.706;151.094;2024-01-25T02:02:12;99209.66;;;29.70;38.52
37291;BME280;23175;-33.706;151.094;2024-01-25T02:04:42;99202.64;;;28.71;39.73
37291;BME280;23175;-33.706;151.094;2024-01-25T02:07:15;99196.99;;;28.72;41.57
37291;BME280;23175;-33.706;151.094;2024-01-25T02:09:45;99191.82;;;28.78;38.28
37291;BME280;23175;-33.706;151.094;2024-01-25T02:12:17;99185.52;;;25.23;43.70
37291;BME280;23175;-33.706;151.094;2024-01-25T02:14:48;99180.82;;;27.98;40.97
37291;BME280;23175;-33.706;151.094;2024-01-25T02:17:19;99175.47;;;28.54;39.94
37291;BME280;23175;-33.706;151.094;2024-01-25T02:19:49;99174.95;;;27.49;43.04
37291;BME280;23175;-33.706;151.094;2024-01-25T02:22:19;99171.14;;;28.48;38.95
37291;BME280;23175;-33.706;151.094;2024-01-25T02:24:49;99170.54;;;25.64;42.32
37291;BME280;23175;-33.706;151.094;2024-01-25T02:27:19;99170.78;;;27.49;41.31
37291;BME280;23175;-33.706;151.094;2024-01-25T02:29:50;99171.05;;;29.73;39.92
37291;BME280;23175;-33.706;151.094;2024-01-25T02:32:20;99174.75;;;28.28;40.47
37291;BME280;23175;-33.706;151.094;2024-01-25T02:34:51;99183.29;;;26.76;43.30
37291;BME280;23175;-33.706;151.094;2024-01-25T02:37:20;99187.73;;;30.81;37.54
37291;BME280;23175;-33.706;151.094;2024-01-25T02:39:51;99189.07;;;30.88;36.17
37291;BME280;23175;-33.706;151.094;2024-01-25T02:42:22;99186.31;;;29.52;38.18
37291;BME280;23175;-33.706;151.094;2024-01-25T02:44:51;99183.85;;;29.40;38.14
37291;BME280;23175;-33.706;151.094;2024-01-25T02:47:21;99175.07;;;29.58;37.06
37291;BME280;23175;-33.706;151.094;2024-01-25T02:49:51;99167.56;;;30.23;36.76
37291;BME280;23175;-33.706;151.094;2024-01-25T02:52:21;99168.04;;;28.42;40.53
37291;BME280;23175;-33.706;151.094;2024-01-25T02:54:51;99177.90;;;30.39;36.72
37291;BME280;23175;-33.706;151.094;2024-01-25T02:57:21;99178.41;;;30.64;38.02
37291;BME280;23175;-33.706;151.094;2024-01-25T02:59:52;99177.03;;;28.66;39.59
37291;BME280;23175;-33.706;151.094;2024-01-25T03:02:22;99182.64;;;27.41;42.69
37291;BME280;23175;-33.706;151.094;2024-01-25T03:04:52;99188.63;;;25.68;44.72
37291;BME280;23175;-33.706;151.094;2024-01-25T03:07:26;99197.49;;;25.42;46.38
37291;BME280;23175;-33.706;151.094;2024-01-25T03:09:56;99196.60;;;26.90;44.69
37291;BME280;23175;-33.706;151.094;2024-01-25T03:12:26;99199.69;;;26.10;45.64
37291;BME280;23175;-33.706;151.094;2024-01-25T03:14:56;99196.80;;;26.43;46.13
37291;BME280;23175;-33.706;151.094;2024-01-25T03:17:26;99182.65;;;25.96;45.97
37291;BME280;23175;-33.706;151.094;2024-01-25T03:19:55;99176.95;;;26.07;46.62
37291;BME280;23175;-33.706;151.094;2024-01-25T03:22:25;99170.65;;;25.95;46.50
37291;BME280;23175;-33.706;151.094;2024-01-25T03:24:55;99170.12;;;27.08;44.91
37291;BME280;23175;-33.706;151.094;2024-01-25T03:27:25;99166.02;;;25.50;46.57
37291;BME280;23175;-33.706;151.094;2024-01-25T03:29:56;99166.71;;;26.37;44.32
37291;BME280;23175;-33.706;151.094;2024-01-25T03:32:26;99168.12;;;24.62;47.69
37291;BME280;23175;-33.706;151.094;2024-01-25T03:34:56;99164.49;;;25.50;45.68
37291;BME280;23175;-33.706;151.094;2024-01-25T03:37:26;99164.21;;;26.68;44.45
37291;BME280;23175;-33.706;151.094;2024-01-25T03:39:56;99161.35;;;27.55;42.49
37291;BME280;23175;-33.706;151.094;2024-01-25T03:42:27;99155.06;;;26.35;44.00
37291;BME280;23175;-33.706;151.094;2024-01-25T03:44:57;99152.13;;;26.57;43.73
37291;BME280;23175;-33.706;151.094;2024-01-25T03:47:26;99143.45;;;23.96;48.00
37291;BME280;23175;-33.706;151.094;2024-01-25T03:49:56;99136.09;;;24.91;45.46
37291;BME280;23175;-33.706;151.094;2024-01-25T03:52:26;99134.35;;;25.16;45.84
37291;BME280;23175;-33.706;151.094;2024-01-25T03:54:56;99128.35;;;25.04;45.76
37291;BME280;23175;-33.706;151.094;2024-01-25T03:57:26;99128.24;;;25.38;46.48
37291;BME280;23175;-33.706;151.094;2024-01-25T03:59:56;99126.71;;;23.88;48.85
37291;BME280;23175;-33.706;151.094;2024-01-25T04:02:26;99131.46;;;26.25;44.96
37291;BME280;23175;-33.706;151.094;2024-01-25T04:04:56;99132.42;;;26.94;44.11
37291;BME280;23175;-33.706;151.094;2024-01-25T04:07:26;99125.57;;;26.82;43.80
37291;BME280;23175;-33.706;151.094;2024-01-25T04:09:56;99124.04;;;25.93;44.05
37291;BME280;23175;-33.706;151.094;2024-01-25T04:12:27;99121.77;;;27.67;42.26
37291;BME280;23175;-33.706;151.094;2024-01-25T04:14:57;99111.86;;;26.96;43.75
37291;BME280;23175;-33.706;151.094;2024-01-25T04:17:27;99110.53;;;26.03;44.51
37291;BME280;23175;-33.706;151.094;2024-01-25T04:19:56;99105.88;;;27.52;42.97
37291;BME280;23175;-33.706;151.094;2024-01-25T04:22:26;99110.97;;;27.13;43.16
37291;BME280;23175;-33.706;151.094;2024-01-25T04:24:56;99106.24;;;26.61;44.22
37291;BME280;23175;-33.706;151.094;2024-01-25T04:27:26;99091.18;;;28.58;41.35
37291;BME280;23175;-33.706;151.094;2024-01-25T04:29:56;99088.39;;;27.33;42.32
37291;BME280;23175;-33.706;151.094;2024-01-25T04:32:27;99077.52;;;27.60;41.92
37291;BME280;23175;-33.706;151.094;2024-01-25T04:34:57;99080.11;;;25.72;44.03
37291;BME280;23175;-33.706;151.094;2024-01-25T04:37:27;99084.43;;;28.13;41.39
37291;BME280;23175;-33.706;151.094;2024-01-25T04:39:57;99084.56;;;24.69;45.99
37291;BME280;23175;-33.706;151.094;2024-01-25T04:42:27;99087.38;;;28.05;41.51
37291;BME280;23175;-33.706;151.094;2024-01-25T04:44:57;99086.13;;;26.00;43.94
37291;BME280;23175;-33.706;151.094;2024-01-25T04:47:27;99087.31;;;26.37;43.77
37291;BME280;23175;-33.706;151.094;2024-01-25T04:49:57;99080.38;;;28.12;41.01
37291;BME280;23175;-33.706;151.094;2024-01-25T04:52:27;99067.15;;;27.25;42.11
37291;BME280;23175;-33.706;151.094;2024-01-25T04:54:57;99046.52;;;29.72;39.26
37291;BME280;23175;-33.706;151.094;2024-01-25T04:57:27;99039.75;;;28.19;42.25
37291;BME280;23175;-33.706;151.094;2024-01-25T04:59:57;99021.68;;;27.26;42.27
37291;BME280;23175;-33.706;151.094;2024-01-25T05:02:27;99020.57;;;27.28;42.44
37291;BME280;23175;-33.706;151.094;2024-01-25T05:04:57;99030.83;;;26.63;42.90
37291;BME280;23175;-33.706;151.094;2024-01-25T05:07:27;99044.12;;;28.14;40.40
37291;BME280;23175;-33.706;151.094;2024-01-25T05:09:57;99067.80;;;25.17;43.11
37291;BME280;23175;-33.706;151.094;2024-01-25T05:12:27;99074.91;;;26.35;42.26
37291;BME280;23175;-33.706;151.094;2024-01-25T05:14:59;99069.89;;;27.39;40.01
37291;BME280;23175;-33.706;151.094;2024-01-25T05:17:30;99073.44;;;29.33;38.75
37291;BME280;23175;-33.706;151.094;2024-01-25T05:20:00;99073.44;;;26.49;40.80
37291;BME280;23175;-33.706;151.094;2024-01-25T05:22:29;99077.33;;;26.97;40.12
37291;BME280;23175;-33.706;151.094;2024-01-25T05:24:59;99077.93;;;27.75;38.78
37291;BME280;23175;-33.706;151.094;2024-01-25T05:27:29;99080.90;;;27.56;38.89
37291;BME280;23175;-33.706;151.094;2024-01-25T05:30:00;99076.74;;;27.26;39.06
37291;BME280;23175;-33.706;151.094;2024-01-25T05:32:30;99069.75;;;28.43;38.27
37291;BME280;23175;-33.706;151.094;2024-01-25T05:35:00;99057.13;;;27.53;38.93
37291;BME280;23175;-33.706;151.094;2024-01-25T05:37:30;99044.89;;;24.67;42.18
37291;BME280;23175;-33.706;151.094;2024-01-25T05:40:00;99039.89;;;25.07;40.66
37291;BME280;23175;-33.706;151.094;2024-01-25T05:42:30;99034.66;;;26.26;40.54
37291;BME280;23175;-33.706;151.094;2024-01-25T05:45:01;99035.23;;;26.42;40.14
37291;BME280;23175;-33.706;151.094;2024-01-25T05:47:31;99033.21;;;25.10;41.40
37291;BME280;23175;-33.706;151.094;2024-01-25T05:50:01;99041.06;;;26.37;39.24
37291;BME280;23175;-33.706;151.094;2024-01-25T05:52:31;99042.69;;;26.20;40.34
37291;BME280;23175;-33.706;151.094;2024-01-25T05:55:01;99039.58;;;26.92;40.26
37291;BME280;23175;-33.706;151.094;2024-01-25T05:57:31;99038.92;;;27.72;39.35
37291;BME280;23175;-33.706;151.094;2024-01-25T06:00:02;99039.04;;;25.81;41.75
37291;BME280;23175;-33.706;151.094;2024-01-25T06:02:32;99038.32;;;26.80;41.28
37291;BME280;23175;-33.706;151.094;2024-01-25T06:05:02;99030.69;;;26.12;42.50
37291;BME280;23175;-33.706;151.094;2024-01-25T06:07:32;99024.23;;;27.22;41.86
37291;BME280;23175;-33.706;151.094;2024-01-25T06:10:03;99018.03;;;25.74;44.15
37291;BME280;23175;-33.706;151.094;2024-01-25T06:12:33;99012.79;;;26.97;42.62
37291;BME280;23175;-33.706;151.094;2024-01-25T06:15:04;99002.11;;;27.37;41.75
37291;BME280;23175;-33.706;151.094;2024-01-25T06:17:35;98999.19;;;25.27;43.45
37291;BME280;23175;-33.706;151.094;2024-01-25T06:20:05;98987.23;;;26.98;42.08
37291;BME280;23175;-33.706;151.094;2024-01-25T06:22:35;98977.97;;;26.71;41.90
37291;BME280;23175;-33.706;151.094;2024-01-25T06:25:06;98974.50;;;26.22;43.64
37291;BME280;23175;-33.706;151.094;2024-01-25T06:27:37;98970.33;;;27.54;42.39
37291;BME280;23175;-33.706;151.094;2024-01-25T06:30:09;98973.55;;;27.64;41.69
37291;BME280;23175;-33.706;151.094;2024-01-25T06:32:40;98971.71;;;26.35;43.72
37291;BME280;23175;-33.706;151.094;2024-01-25T06:35:10;98968.56;;;25.80;44.66
37291;BME280;23175;-33.706;151.094;2024-01-25T06:37:40;98974.63;;;23.33;47.81
37291;BME280;23175;-33.706;151.094;2024-01-25T06:40:11;98969.83;;;26.33;42.94
37291;BME280;23175;-33.706;151.094;2024-01-25T06:42:41;98973.53;;;25.42;45.41
37291;BME280;23175;-33.706;151.094;2024-01-25T06:45:12;98979.83;;;25.36;45.04
37291;BME280;23175;-33.706;151.094;2024-01-25T06:47:42;98981.58;;;26.20;43.76
37291;BME280;23175;-33.706;151.094;2024-01-25T06:50:12;98988.20;;;25.71;45.72
37291;BME280;23175;-33.706;151.094;2024-01-25T06:52:42;98980.54;;;26.51;43.84
37291;BME280;23175;-33.706;151.094;2024-01-25T06:55:12;98966.76;;;24.06;48.87
37291;BME280;23175;-33.706;151.094;2024-01-25T06:57:42;98969.32;;;26.46;44.80
37291;BME280;23175;-33.706;151.094;2024-01-25T07:00:13;98975.32;;;24.29;48.63
37291;BME280;23175;-33.706;151.094;2024-01-25T07:02:43;98975.96;;;26.16;45.22
37291;BME280;23175;-33.706;151.094;2024-01-25T07:05:13;98971.69;;;25.15;46.02
37291;BME280;23175;-33.706;151.094;2024-01-25T07:07:43;98971.83;;;26.68;44.18
37291;BME280;23175;-33.706;151.094;2024-01-25T07:10:13;98979.65;;;26.61;44.47
37291;BME280;23175;-33.706;151.094;2024-01-25T07:12:44;98988.97;;;27.01;43.23
37291;BME280;23175;-33.706;151.094;2024-01-25T07:15:14;98994.09;;;26.19;44.64
37291;BME280;23175;-33.706;151.094;2024-01-25T07:17:44;98998.92;;;26.54;44.39
37291;BME280;23175;-33.706;151.094;2024-01-25T07:20:15;98997.79;;;27.25;42.72
37291;BME280;23175;-33.706;151.094;2024-01-25T07:22:45;98995.70;;;25.51;45.22
37291;BME280;23175;-33.706;151.094;2024-01-25T07:25:15;99003.49;;;26.45;44.15
37291;BME280;23175;-33.706;151.094;2024-01-25T07:27:46;99014.35;;;27.63;42.44
37291;BME280;23175;-33.706;151.094;2024-01-25T07:30:17;99020.30;;;21.80;51.93
37291;BME280;23175;-33.706;151.094;2024-01-25T07:32:47;99013.02;;;24.99;47.08
37291;BME280;23175;-33.706;151.094;2024-01-25T07:35:17;99004.20;;;26.20;45.65
37291;BME280;23175;-33.706;151.094;2024-01-25T07:37:48;99003.54;;;25.71;45.87
37291;BME280;23175;-33.706;151.094;2024-01-25T07:40:17;99005.06;;;24.43;47.15
37291;BME280;23175;-33.706;151.094;2024-01-25T07:42:48;99015.05;;;22.79;50.00
37291;BME280;23175;-33.706;151.094;2024-01-25T07:45:18;99019.01;;;25.36;46.13
37291;BME280;23175;-33.706;151.094;2024-01-25T07:47:49;99030.90;;;22.80;49.78
37291;BME280;23175;-33.706;151.094;2024-01-25T07:50:19;99044.37;;;22.53;51.29
37291;BME280;23175;-33.706;151.094;2024-01-25T07:52:49;99052.31;;;26.90;44.42
37291;BME280;23175;-33.706;151.094;2024-01-25T07:55:19;99054.56;;;24.42;47.88
37291;BME280;23175;-33.706;151.094;2024-01-25T07:57:49;99057.56;;;25.82;45.72
37291;BME280;23175;-33.706;151.094;2024-01-25T08:00:19;99058.94;;;27.28;43.11
37291;BME280;23175;-33.706;151.094;2024-01-25T08:02:49;99058.13;;;23.38;49.65
37291;BME280;23175;-33.706;151.094;2024-01-25T08:05:20;99058.14;;;23.31;50.60
37291;BME280;23175;-33.706;151.094;2024-01-25T08:07:49;99052.03;;;22.23;52.68
37291;BME280;23175;-33.706;151.094;2024-01-25T08:10:19;99058.11;;;26.16;46.73
37291;BME280;23175;-33.706;151.094;2024-01-25T08:12:50;99056.21;;;24.05;49.35
37291;BME280;23175;-33.706;151.094;2024-01-25T08:15:21;99064.66;;;26.33;45.88
37291;BME280;23175;-33.706;151.094;2024-01-25T08:17:52;99073.93;;;20.19;56.28
37291;BME280;23175;-33.706;151.094;2024-01-25T08:20:21;99069.12;;;25.40;48.42
37291;BME280;23175;-33.706;151.094;2024-01-25T08:22:51;99074.62;;;26.05;45.28
37291;BME280;23175;-33.706;151.094;2024-01-25T08:25:22;99077.39;;;22.80;50.31
37291;BME280;23175;-33.706;151.094;2024-01-25T08:27:51;99075.30;;;21.44;52.47
37291;BME280;23175;-33.706;151.094;2024-01-25T08:30:22;99073.74;;;21.28;53.93
37291;BME280;23175;-33.706;151.094;2024-01-25T08:32:52;99075.23;;;22.67;51.81
37291;BME280;23175;-33.706;151.094;2024-01-25T08:35:22;99068.34;;;21.54;55.06
37291;BME280;23175;-33.706;151.094;2024-01-25T08:37:52;99060.87;;;21.92;52.60
37291;BME280;23175;-33.706;151.094;2024-01-25T08:40:22;99054.41;;;22.95;51.29
37291;BME280;23175;-33.706;151.094;2024-01-25T08:42:53;99054.84;;;23.77;48.52
37291;BME280;23175;-33.706;151.094;2024-01-25T08:45:23;99052.74;;;22.42;50.83
37291;BME280;23175;-33.706;151.094;2024-01-25T08:47:53;99056.21;;;24.79;46.34
37291;BME280;23175;-33.706;151.094;2024-01-25T08:50:23;99059.17;;;23.94;48.57
37291;BME280;23175;-33.706;151.094;2024-01-25T08:52:52;99062.52;;;21.88;51.42
37291;BME280;23175;-33.706;151.094;2024-01-25T08:55:22;99069.41;;;22.02;52.32
37291;BME280;23175;-33.706;151.094;2024-01-25T08:57:52;99061.01;;;22.40;51.61
37291;BME280;23175;-33.706;151.094;2024-01-25T09:00:22;99066.29;;;21.56;54.70
37291;BME280;23175;-33.706;151.094;2024-01-25T09:02:52;99074.02;;;21.20;53.71
37291;BME280;23175;-33.706;151.094;2024-01-25T09:05:22;99068.35;;;25.14;48.37
37291;BME280;23175;-33.706;151.094;2024-01-25T09:07:52;99067.69;;;25.43;45.93
37291;BME280;23175;-33.706;151.094;2024-01-25T09:10:22;99073.49;;;22.51;53.13
37291;BME280;23175;-33.706;151.094;2024-01-25T09:12:52;99076.32;;;23.57;49.82
37291;BME280;23175;-33.706;151.094;2024-01-25T09:15:22;99081.85;;;23.81;49.54
37291;BME280;23175;-33.706;151.094;2024-01-25T09:17:52;99078.46;;;22.70;51.00
37291;BME280;23175;-33.706;151.094;2024-01-25T09:20:22;99079.82;;;21.74;53.09
37291;BME280;23175;-33.706;151.094;2024-01-25T09:22:51;99080.05;;;26.29;45.18
37291;BME280;23175;-33.706;151.094;2024-01-25T09:25:22;99088.19;;;24.00;48.79
37291;BME280;23175;-33.706;151.094;2024-01-25T09:27:52;99088.31;;;26.01;44.61
37291;BME280;23175;-33.706;151.094;2024-01-25T09:30:22;99088.83;;;27.13;43.12
37291;BME280;23175;-33.706;151.094;2024-01-25T09:32:52;99095.66;;;27.01;42.51
37291;BME280;23175;-33.706;151.094;2024-01-25T09:35:22;99094.83;;;26.45;42.89
37291;BME280;23175;-33.706;151.094;2024-01-25T09:37:52;99091.48;;;22.05;48.99
37291;BME280;23175;-33.706;151.094;2024-01-25T09:40:22;99089.82;;;24.29;46.43
37291;BME280;23175;-33.706;151.094;2024-01-25T09:42:54;99088.63;;;21.52;49.52
37291;BME280;23175;-33.706;151.094;2024-01-25T09:45:25;99089.00;;;26.32;43.89
37291;BME280;23175;-33.706;151.094;2024-01-25T09:47:55;99083.32;;;22.76;47.52
37291;BME280;23175;-33.706;151.094;2024-01-25T09:50:25;99083.25;;;26.84;42.27
37291;BME280;23175;-33.706;151.094;2024-01-25T09:52:56;99083.76;;;25.57;43.50
37291;BME280;23175;-33.706;151.094;2024-01-25T09:55:27;99085.65;;;27.26;40.51
37291;BME280;23175;-33.706;151.094;2024-01-25T09:57:58;99078.83;;;26.66;41.19
37291;BME280;23175;-33.706;151.094;2024-01-25T10:00:28;99076.69;;;25.05;43.85
37291;BME280;23175;-33.706;151.094;2024-01-25T10:02:58;99076.47;;;27.60;39.75
37291;BME280;23175;-33.706;151.094;2024-01-25T10:05:28;99075.07;;;27.72;39.28
37291;BME280;23175;-33.706;151.094;2024-01-25T10:07:58;99070.59;;;28.05;38.99
37291;BME280;23175;-33.706;151.094;2024-01-25T10:10:34;99065.84;;;25.99;41.06
37291;BME280;23175;-33.706;151.094;2024-01-25T10:13:04;99064.29;;;28.31;38.32
37291;BME280;23175;-33.706;151.094;2024-01-25T10:15:35;99064.61;;;28.53;38.52
37291;BME280;23175;-33.706;151.094;2024-01-25T10:18:06;99063.18;;;27.82;39.60
37291;BME280;23175;-33.706;151.094;2024-01-25T10:20:35;99062.04;;;27.79;40.26
37291;BME280;23175;-33.706;151.094;2024-01-25T10:23:06;99060.40;;;28.74;39.42
37291;BME280;23175;-33.706;151.094;2024-01-25T10:25:36;99056.88;;;27.87;40.76
37291;BME280;23175;-33.706;151.094;2024-01-25T10:28:07;99050.81;;;28.42;39.52
37291;BME280;23175;-33.706;151.094;2024-01-25T10:30:37;99053.90;;;28.22;39.90
37291;BME280;23175;-33.706;151.094;2024-01-25T10:33:08;99052.55;;;27.94;40.36
37291;BME280;23175;-33.706;151.094;2024-01-25T10:35:39;99056.07;;;27.05;41.57
37291;BME280;23175;-33.706;151.094;2024-01-25T10:38:09;99061.84;;;27.91;40.08
37291;BME280;23175;-33.706;151.094;2024-01-25T10:40:40;99072.81;;;26.30;42.73
37291;BME280;23175;-33.706;151.094;2024-01-25T10:43:10;99070.58;;;28.14;40.24
37291;BME280;23175;-33.706;151.094;2024-01-25T10:45:40;99080.12;;;28.32;39.73
37291;BME280;23175;-33.706;151.094;2024-01-25T10:48:10;99086.88;;;28.38;39.65
37291;BME280;23175;-33.706;151.094;2024-01-25T10:50:40;99096.55;;;28.42;39.68
37291;BME280;23175;-33.706;151.094;2024-01-25T10:53:11;99107.55;;;28.41;39.76
37291;BME280;23175;-33.706;151.094;2024-01-25T10:55:41;99109.62;;;28.19;40.12
37291;BME280;23175;-33.706;151.094;2024-01-25T10:58:14;99112.67;;;28.57;39.35
37291;BME280;23175;-33.706;151.094;2024-01-25T11:00:51;99106.78;;;25.93;42.77
37291;BME280;23175;-33.706;151.094;2024-01-25T11:03:21;99094.96;;;27.34;40.78
37291;BME280;23175;-33.706;151.094;2024-01-25T11:06:05;99115.40;;;27.69;40.52
37291;BME280;23175;-33.706;151.094;2024-01-25T11:08:35;99176.69;;;25.94;42.62
37291;BME280;23175;-33.706;151.094;2024-01-25T11:11:12;99221.57;;;23.06;47.78
37291;BME280;23175;-33.706;151.094;2024-01-25T11:13:44;99190.17;;;21.93;49.94
37291;BME280;23175;-33.706;151.094;2024-01-25T11:16:15;99203.54;;;22.22;50.43
37291;BME280;23175;-33.706;151.094;2024-01-25T11:18:55;99206.66;;;20.31;53.49
37291;BME280;23175;-33.706;151.094;2024-01-25T11:21:28;99179.71;;;21.55;53.06
37291;BME280;23175;-33.706;151.094;2024-01-25T11:24:02;99174.85;;;20.13;55.94
37291;BME280;23175;-33.706;151.094;2024-01-25T11:26:34;99168.83;;;20.58;54.90
37291;BME280;23175;-33.706;151.094;2024-01-25T11:29:04;99153.38;;;21.50;53.24
37291;BME280;23175;-33.706;151.094;2024-01-25T11:31:35;99148.11;;;23.81;49.25
37291;BME280;23175;-33.706;151.094;2024-01-25T11:34:05;99134.95;;;24.12;47.46
37291;BME280;23175;-33.706;151.094;2024-01-25T11:36:35;99125.79;;;25.30;45.86
37291;BME280;23175;-33.706;151.094;2024-01-25T11:39:05;99118.19;;;25.72;44.49
37291;BME280;23175;-33.706;151.094;2024-01-25T11:41:35;99113.95;;;23.49;47.49
37291;BME280;23175;-33.706;151.094;2024-01-25T11:44:05;99102.50;;;23.84;46.93
37291;BME280;23175;-33.706;151.094;2024-01-25T11:46:36;99093.72;;;24.65;45.13
37291;BME280;23175;-33.706;151.094;2024-01-25T11:49:07;99082.94;;;25.38;44.20
37291;BME280;23175;-33.706;151.094;2024-01-25T11:51:37;99066.24;;;26.07;44.00
37291;BME280;23175;-33.706;151.094;2024-01-25T11:54:07;99078.48;;;25.78;43.52
37291;BME280;23175;-33.706;151.094;2024-01-25T11:56:38;99076.37;;;27.28;41.26
37291;BME280;23175;-33.706;151.094;2024-01-25T11:59:10;99057.45;;;25.04;44.42
37291;BME280;23175;-33.706;151.094;2024-01-25T12:01:40;99035.29;;;27.44;41.30
37291;BME280;23175;-33.706;151.094;2024-01-25T12:04:11;99008.42;;;26.36;42.49
37291;BME280;23175;-33.706;151.094;2024-01-25T12:06:41;98984.18;;;26.55;41.73
37291;BME280;23175;-33.706;151.094;2024-01-25T12:09:12;98972.52;;;26.81;41.89
37291;BME280;23175;-33.706;151.094;2024-01-25T12:11:43;98970.03;;;27.25;41.43
37291;BME280;23175;-33.706;151.094;2024-01-25T12:14:13;98965.93;;;26.73;42.24
37291;BME280;23175;-33.706;151.094;2024-01-25T12:16:43;98958.90;;;25.24;43.79
37291;BME280;23175;-33.706;151.094;2024-01-25T12:19:13;98954.34;;;27.45;40.90
37291;BME280;23175;-33.706;151.094;2024-01-25T12:21:46;98950.43;;;26.51;41.28
37291;BME280;23175;-33.706;151.094;2024-01-25T12:24:16;98950.83;;;24.65;43.75
37291;BME280;23175;-33.706;151.094;2024-01-25T12:26:48;98940.62;;;25.66;43.29
37291;BME280;23175;-33.706;151.094;2024-01-25T12:29:19;98930.23;;;26.55;41.15
37291;BME280;23175;-33.706;151.094;2024-01-25T12:31:49;98924.96;;;25.99;42.77
37291;BME280;23175;-33.706;151.094;2024-01-25T12:34:19;98919.36;;;27.84;39.99
37291;BME280;23175;-33.706;151.094;2024-01-25T12:36:49;98917.04;;;27.51;39.94
37291;BME280;23175;-33.706;151.094;2024-01-25T12:39:19;98910.35;;;27.95;39.31
37291;BME280;23175;-33.706;151.094;2024-01-25T12:41:50;98908.44;;;26.97;40.67
37291;BME280;23175;-33.706;151.094;2024-01-25T12:44:20;98904.99;;;27.72;40.54
37291;BME280;23175;-33.706;151.094;2024-01-25T12:46:50;98904.88;;;28.03;40.95